sensor_id;sensor_type;location;lat;lon;timestamp;pressure;altitude;pressure_sealevel;temperature;humidity
50854;BME280;44154;45.506;-122.806;2023-04-25T00:00:04;101302.06;;;25.23;36.90
50854;BME280;44154;45.506;-122.806;2023-04-25T00:02:33;101305.97;;;25.27;36.80
50854;BME280;44154;45.506;-122.806;2023-04-25T00:05:01;101301.69;;;25.32;37.32
50854;BME280;44154;45.506;-122.806;2023-04-25T00:07:27;101303.09;;;25.34;37.68
50854;BME280;44154;45.506;-122.806;2023-04-25T00:09:54;101253.66;;;24.95;37.28
50854;BME280;44154;45.506;-122.806;2023-04-25T00:12:20;101315.50;;;25.37;38.13
50854;BME280;44154;45.506;-122.806;2023-04-25T00:14:48;101302.06;;;25.23;37.99
50854;BME280;44154;45.506;-122.806;2023-04-25T00:17:15;101311.91;;;25.36;37.75
50854;BME280;44154;45.506;-122.806;2023-04-25T00:19:44;101303.44;;;25.38;37.63
50854;BME280;44154;45.506;-122.806;2023-04-25T00:22:12;101307.16;;;25.32;37.37
50854;BME280;44154;45.506;-122.806;2023-04-25T00:24:39;101317.63;;;25.35;37.26
50854;BME280;44154;45.506;-122.806;2023-04-25T00:27:05;101309.16;;;25.36;37.44
50854;BME280;44154;45.506;-122.806;2023-04-25T00:29:31;101306.50;;;25.41;37.50
50854;BME280;44154;45.506;-122.806;2023-04-25T00:31:57;101319.72;;;25.44;37.28
50854;BME280;44154;45.506;-122.806;2023-04-25T00:34:23;101318.16;;;25.49;36.87
50854;BME280;44154;45.506;-122.806;2023-04-25T00:36:50;101299.38;;;25.40;36.84
50854;BME280;44154;45.506;-122.806;2023-04-25T00:39:16;101313.47;;;25.49;36.80
50854;BME280;44154;45.506;-122.806;2023-04-25T00:41:42;101304.59;;;25.42;36.42
50854;BME280;44154;45.506;-122.806;2023-04-25T00:44:09;101312.41;;;25.50;36.61
50854;BME280;44154;45.506;-122.806;2023-04-25T00:46:39;101315.16;;;25.50;36.48
50854;BME280;44154;45.506;-122.806;2023-04-25T00:49:05;101320.63;;;25.50;36.94
50854;BME280;44154;45.506;-122.806;2023-04-25T00:51:32;101299.03;;;25.37;36.88
50854;BME280;44154;45.506;-122.806;2023-04-25T00:53:59;101289.53;;;25.27;36.86
50854;BME280;44154;45.506;-122.806;2023-04-25T00:56:26;101305.34;;;25.37;36.87
50854;BME280;44154;45.506;-122.806;2023-04-25T00:58:53;101308.09;;;25.37;37.03
50854;BME280;44154;45.506;-122.806;2023-04-25T01:01:22;101327.19;;;25.49;37.08
50854;BME280;44154;45.506;-122.806;2023-04-25T01:03:49;101333.16;;;25.46;36.82
50854;BME280;44154;45.506;-122.806;2023-04-25T01:06:17;101330.69;;;25.44;36.99
50854;BME280;44154;45.506;-122.806;2023-04-25T01:08:43;101328.75;;;25.45;37.46
50854;BME280;44154;45.506;-122.806;2023-04-25T01:11:09;101316.09;;;25.27;37.63
50854;BME280;44154;45.506;-122.806;2023-04-25T01:13:36;101341.38;;;25.46;37.17
50854;BME280;44154;45.506;-122.806;2023-04-25T01:16:02;101336.41;;;25.60;37.07
50854;BME280;44154;45.506;-122.806;2023-04-25T01:18:29;101332.41;;;25.68;37.03
50854;BME280;44154;45.506;-122.806;2023-04-25T01:20:55;101343.69;;;25.71;36.56
50854;BME280;44154;45.506;-122.806;2023-04-25T01:23:22;101338.91;;;25.61;37.06
50854;BME280;44154;45.506;-122.806;2023-04-25T01:25:49;101333.09;;;25.58;36.48
50854;BME280;44154;45.506;-122.806;2023-04-25T01:28:16;101357.41;;;25.71;36.24
50854;BME280;44154;45.506;-122.806;2023-04-25T01:30:43;101353.03;;;25.70;36.20
50854;BME280;44154;45.506;-122.806;2023-04-25T01:33:10;101354.34;;;25.68;36.17
50854;BME280;44154;45.506;-122.806;2023-04-25T01:35:37;101355.00;;;25.58;36.02
50854;BME280;44154;45.506;-122.806;2023-04-25T01:38:03;101363.16;;;25.53;36.60
50854;BME280;44154;45.506;-122.806;2023-04-25T01:40:30;101355.34;;;25.44;36.79
50854;BME280;44154;45.506;-122.806;2023-04-25T01:42:57;101351.31;;;25.35;37.10
50854;BME280;44154;45.506;-122.806;2023-04-25T01:45:23;101370.03;;;25.55;36.79
50854;BME280;44154;45.506;-122.806;2023-04-25T01:47:49;101370.63;;;25.57;36.96
50854;BME280;44154;45.506;-122.806;2023-04-25T01:50:17;101379.78;;;25.63;36.95
50854;BME280;44154;45.506;-122.806;2023-04-25T01:52:44;101354.19;;;25.57;36.84
50854;BME280;44154;45.506;-122.806;2023-04-25T01:55:10;101366.38;;;25.67;36.86
50854;BME280;44154;45.506;-122.806;2023-04-25T01:57:37;101366.75;;;25.70;37.09
50854;BME280;44154;45.506;-122.806;2023-04-25T02:00:05;101370.66;;;25.74;37.10
50854;BME280;44154;45.506;-122.806;2023-04-25T02:02:32;101370.28;;;25.71;37.32
50854;BME280;44154;45.506;-122.806;2023-04-25T02:04:59;101377.25;;;25.78;37.03
50854;BME280;44154;45.506;-122.806;2023-04-25T02:07:26;101374.31;;;25.80;37.09
50854;BME280;44154;45.506;-122.806;2023-04-25T02:09:52;101363.50;;;25.73;37.27
50854;BME280;44154;45.506;-122.806;2023-04-25T02:12:18;101372.94;;;25.83;37.33
50854;BME280;44154;45.506;-122.806;2023-04-25T02:14:45;101367.72;;;25.81;37.35
50854;BME280;44154;45.506;-122.806;2023-04-25T02:17:11;101374.63;;;25.84;37.58
50854;BME280;44154;45.506;-122.806;2023-04-25T02:19:38;101371.06;;;25.83;37.22
50854;BME280;44154;45.506;-122.806;2023-04-25T02:22:06;101378.19;;;25.84;37.42
50854;BME280;44154;45.506;-122.806;2023-04-25T02:24:32;101379.28;;;25.83;37.62
50854;BME280;44154;45.506;-122.806;2023-04-25T02:26:59;101371.47;;;25.75;37.48
50854;BME280;44154;45.506;-122.806;2023-04-25T02:29:25;101382.44;;;25.75;37.38
50854;BME280;44154;45.506;-122.806;2023-04-25T02:31:52;101391.72;;;25.74;37.42
50854;BME280;44154;45.506;-122.806;2023-04-25T02:34:18;101389.00;;;25.74;37.66
50854;BME280;44154;45.506;-122.806;2023-04-25T02:36:44;101386.00;;;25.75;37.41
50854;BME280;44154;45.506;-122.806;2023-04-25T02:39:10;101393.41;;;25.75;37.59
50854;BME280;44154;45.506;-122.806;2023-04-25T02:41:37;101390.81;;;25.51;37.95
50854;BME280;44154;45.506;-122.806;2023-04-25T02:44:03;101394.03;;;25.48;38.23
50854;BME280;44154;45.506;-122.806;2023-04-25T02:46:29;101395.28;;;25.40;38.49
50854;BME280;44154;45.506;-122.806;2023-04-25T02:48:55;101399.31;;;25.38;38.27
50854;BME280;44154;45.506;-122.806;2023-04-25T02:51:21;101385.31;;;25.34;38.46
50854;BME280;44154;45.506;-122.806;2023-04-25T02:53:48;101395.19;;;25.52;38.17
50854;BME280;44154;45.506;-122.806;2023-04-25T02:56:14;101395.69;;;25.49;38.51
50854;BME280;44154;45.506;-122.806;2023-04-25T02:58:40;101398.19;;;25.51;38.29
50854;BME280;44154;45.506;-122.806;2023-04-25T03:01:06;101403.03;;;25.60;38.55
50854;BME280;44154;45.506;-122.806;2023-04-25T03:03:32;101401.97;;;25.61;38.35
50854;BME280;44154;45.506;-122.806;2023-04-25T03:05:58;101404.03;;;25.54;38.65
50854;BME280;44154;45.506;-122.806;2023-04-25T03:08:25;101413.22;;;25.48;38.60
50854;BME280;44154;45.506;-122.806;2023-04-25T03:10:55;101405.34;;;25.52;38.26
50854;BME280;44154;45.506;-122.806;2023-04-25T03:13:21;101397.44;;;25.38;38.33
50854;BME280;44154;45.506;-122.806;2023-04-25T03:15:47;101406.13;;;25.35;38.08
50854;BME280;44154;45.506;-122.806;2023-04-25T03:18:13;101394.63;;;25.21;38.49
50854;BME280;44154;45.506;-122.806;2023-04-25T03:20:39;101411.13;;;25.38;38.55
50854;BME280;44154;45.506;-122.806;2023-04-25T03:23:07;101420.97;;;25.51;38.55
50854;BME280;44154;45.506;-122.806;2023-04-25T03:25:33;101414.09;;;25.66;38.23
50854;BME280;44154;45.506;-122.806;2023-04-25T03:27:59;101421.72;;;25.80;37.62
50854;BME280;44154;45.506;-122.806;2023-04-25T03:30:26;101430.13;;;25.74;37.96
50854;BME280;44154;45.506;-122.806;2023-04-25T03:32:52;101384.75;;;25.49;37.59
50854;BME280;44154;45.506;-122.806;2023-04-25T03:35:18;101425.63;;;25.68;37.72
50854;BME280;44154;45.506;-122.806;2023-04-25T03:37:44;101439.00;;;25.81;37.51
50854;BME280;44154;45.506;-122.806;2023-04-25T03:40:11;101441.75;;;25.81;37.38
50854;BME280;44154;45.506;-122.806;2023-04-25T03:42:37;101426.81;;;25.72;37.43
50854;BME280;44154;45.506;-122.806;2023-04-25T03:45:04;101447.72;;;25.78;37.39
50854;BME280;44154;45.506;-122.806;2023-04-25T03:47:30;101448.22;;;25.75;37.47
50854;BME280;44154;45.506;-122.806;2023-04-25T03:49:57;101462.19;;;25.73;37.29
50854;BME280;44154;45.506;-122.806;2023-04-25T03:52:23;101446.38;;;25.63;37.36
50854;BME280;44154;45.506;-122.806;2023-04-25T03:54:49;101456.03;;;25.66;37.42
50854;BME280;44154;45.506;-122.806;2023-04-25T03:57:15;101474.81;;;25.74;37.48
50854;BME280;44154;45.506;-122.806;2023-04-25T03:59:41;101470.41;;;25.73;37.52
50854;BME280;44154;45.506;-122.806;2023-04-25T04:02:07;101481.13;;;25.75;37.21
50854;BME280;44154;45.506;-122.806;2023-04-25T04:04:34;101479.72;;;25.72;37.27
50854;BME280;44154;45.506;-122.806;2023-04-25T04:07:00;101490.44;;;25.74;37.26
50854;BME280;44154;45.506;-122.806;2023-04-25T04:09:26;101494.50;;;25.71;37.05
50854;BME280;44154;45.506;-122.806;2023-04-25T04:11:53;101505.13;;;25.68;37.21
50854;BME280;44154;45.506;-122.806;2023-04-25T04:14:19;101508.38;;;25.65;37.12
50854;BME280;44154;45.506;-122.806;2023-04-25T04:16:45;101497.09;;;25.49;37.15
50854;BME280;44154;45.506;-122.806;2023-04-25T04:19:12;101523.38;;;25.62;37.37
50854;BME280;44154;45.506;-122.806;2023-04-25T04:21:38;101513.75;;;25.59;37.12
50854;BME280;44154;45.506;-122.806;2023-04-25T04:24:04;101503.41;;;25.50;37.39
50854;BME280;44154;45.506;-122.806;2023-04-25T04:26:32;101518.16;;;25.60;37.40
50854;BME280;44154;45.506;-122.806;2023-04-25T04:29:00;101513.16;;;25.57;37.19
50854;BME280;44154;45.506;-122.806;2023-04-25T04:31:27;101509.38;;;25.47;37.06
50854;BME280;44154;45.506;-122.806;2023-04-25T04:33:53;101531.47;;;25.69;37.28
50854;BME280;44154;45.506;-122.806;2023-04-25T04:36:19;101522.31;;;25.63;36.97
50854;BME280;44154;45.506;-122.806;2023-04-25T04:38:47;101527.19;;;25.61;36.98
50854;BME280;44154;45.506;-122.806;2023-04-25T04:41:13;101522.69;;;25.55;36.81
50854;BME280;44154;45.506;-122.806;2023-04-25T04:43:40;101523.88;;;25.59;37.03
50854;BME280;44154;45.506;-122.806;2023-04-25T04:46:06;101527.44;;;25.59;37.26
50854;BME280;44154;45.506;-122.806;2023-04-25T04:48:32;101538.41;;;25.59;37.27
50854;BME280;44154;45.506;-122.806;2023-04-25T04:51:00;101532.53;;;25.68;37.52
50854;BME280;44154;45.506;-122.806;2023-04-25T04:53:26;101535.84;;;25.82;37.35
50854;BME280;44154;45.506;-122.806;2023-04-25T04:55:53;101526.34;;;25.89;37.42
50854;BME280;44154;45.506;-122.806;2023-04-25T04:58:19;101527.44;;;25.88;37.11
50854;BME280;44154;45.506;-122.806;2023-04-25T05:00:45;101540.03;;;26.01;36.88
50854;BME280;44154;45.506;-122.806;2023-04-25T05:03:12;101540.03;;;26.01;36.63
50854;BME280;44154;45.506;-122.806;2023-04-25T05:05:38;101553.97;;;26.00;36.67
50854;BME280;44154;45.506;-122.806;2023-04-25T05:08:06;101541.81;;;25.95;36.80
50854;BME280;44154;45.506;-122.806;2023-04-25T05:10:32;101557.09;;;25.91;36.97
50854;BME280;44154;45.506;-122.806;2023-04-25T05:12:58;101553.22;;;25.87;36.55
50854;BME280;44154;45.506;-122.806;2023-04-25T05:15:25;101554.78;;;25.83;36.87
50854;BME280;44154;45.506;-122.806;2023-04-25T05:17:51;101553.59;;;25.79;36.69
50854;BME280;44154;45.506;-122.806;2023-04-25T05:20:17;101550.75;;;25.74;36.62
50854;BME280;44154;45.506;-122.806;2023-04-25T05:22:44;101539.00;;;25.61;36.73
50854;BME280;44154;45.506;-122.806;2023-04-25T05:25:10;101553.41;;;25.69;36.84
50854;BME280;44154;45.506;-122.806;2023-04-25T05:27:37;101546.06;;;25.57;36.72
50854;BME280;44154;45.506;-122.806;2023-04-25T05:30:04;101568.31;;;25.61;36.93
50854;BME280;44154;45.506;-122.806;2023-04-25T05:32:31;101581.31;;;25.66;37.21
50854;BME280;44154;45.506;-122.806;2023-04-25T05:34:57;101574.97;;;25.65;37.02
50854;BME280;44154;45.506;-122.806;2023-04-25T05:37:23;101572.72;;;25.62;36.68
50854;BME280;44154;45.506;-122.806;2023-04-25T05:39:49;101570.22;;;25.60;36.92
50854;BME280;44154;45.506;-122.806;2023-04-25T05:42:15;101574.91;;;25.60;36.68
50854;BME280;44154;45.506;-122.806;2023-04-25T05:44:42;101577.75;;;25.53;37.06
50854;BME280;44154;45.506;-122.806;2023-04-25T05:47:08;101590.53;;;25.48;36.87
50854;BME280;44154;45.506;-122.806;2023-04-25T05:49:34;101593.03;;;25.49;36.68
50854;BME280;44154;45.506;-122.806;2023-04-25T05:52:00;101585.16;;;25.53;37.29
50854;BME280;44154;45.506;-122.806;2023-04-25T05:54:27;101573.97;;;25.54;37.40
50854;BME280;44154;45.506;-122.806;2023-04-25T05:56:53;101563.94;;;25.60;37.26
50854;BME280;44154;45.506;-122.806;2023-04-25T05:59:19;101584.25;;;25.76;37.08
50854;BME280;44154;45.506;-122.806;2023-04-25T06:01:45;101566.03;;;25.70;37.21
50854;BME280;44154;45.506;-122.806;2023-04-25T06:04:12;101576.72;;;25.83;37.07
50854;BME280;44154;45.506;-122.806;2023-04-25T06:06:38;101566.06;;;25.87;36.80
50854;BME280;44154;45.506;-122.806;2023-04-25T06:09:05;101552.41;;;25.75;36.98
50854;BME280;44154;45.506;-122.806;2023-04-25T06:11:31;101552.41;;;25.75;36.77
50854;BME280;44154;45.506;-122.806;2023-04-25T06:13:57;101562.41;;;25.81;37.00
50854;BME280;44154;45.506;-122.806;2023-04-25T06:16:23;101577.91;;;25.87;36.89
50854;BME280;44154;45.506;-122.806;2023-04-25T06:18:51;101578.34;;;25.84;36.77
50854;BME280;44154;45.506;-122.806;2023-04-25T06:21:17;101572.06;;;25.84;36.70
50854;BME280;44154;45.506;-122.806;2023-04-25T06:23:43;101587.94;;;25.70;37.44
50854;BME280;44154;45.506;-122.806;2023-04-25T06:26:10;101602.41;;;25.65;37.44
50854;BME280;44154;45.506;-122.806;2023-04-25T06:28:36;101609.56;;;25.66;37.24
50854;BME280;44154;45.506;-122.806;2023-04-25T06:31:02;101603.25;;;25.66;37.81
50854;BME280;44154;45.506;-122.806;2023-04-25T06:33:28;101597.16;;;25.63;38.16
50854;BME280;44154;45.506;-122.806;2023-04-25T06:35:55;101591.19;;;25.67;38.25
50854;BME280;44154;45.506;-122.806;2023-04-25T06:38:21;101583.81;;;25.67;38.14
50854;BME280;44154;45.506;-122.806;2023-04-25T06:40:47;101560.44;;;25.65;38.41
50854;BME280;44154;45.506;-122.806;2023-04-25T06:43:13;101567.19;;;25.74;38.33
50854;BME280;44154;45.506;-122.806;2023-04-25T06:45:40;101578.16;;;25.74;38.31
50854;BME280;44154;45.506;-122.806;2023-04-25T06:48:06;101582.00;;;25.73;38.55
50854;BME280;44154;45.506;-122.806;2023-04-25T06:50:33;101574.66;;;25.61;38.35
50854;BME280;44154;45.506;-122.806;2023-04-25T06:52:59;101602.16;;;25.67;38.20
50854;BME280;44154;45.506;-122.806;2023-04-25T06:55:27;101596.59;;;25.61;38.23
50854;BME280;44154;45.506;-122.806;2023-04-25T06:57:53;101586.94;;;25.59;38.93
50854;BME280;44154;45.506;-122.806;2023-04-25T07:00:20;101581.44;;;25.59;39.03
50854;BME280;44154;45.506;-122.806;2023-04-25T07:02:47;101600.03;;;25.57;39.04
50854;BME280;44154;45.506;-122.806;2023-04-25T07:05:13;101603.88;;;25.56;38.68
50854;BME280;44154;45.506;-122.806;2023-04-25T07:07:39;101610.66;;;25.53;38.67
50854;BME280;44154;45.506;-122.806;2023-04-25T07:10:06;101602.91;;;25.50;38.33
50854;BME280;44154;45.506;-122.806;2023-04-25T07:12:32;101605.53;;;25.45;38.38
50854;BME280;44154;45.506;-122.806;2023-04-25T07:14:58;101602.22;;;25.43;38.27
50854;BME280;44154;45.506;-122.806;2023-04-25T07:17:25;101609.25;;;25.39;38.29
50854;BME280;44154;45.506;-122.806;2023-04-25T07:19:51;101597.69;;;25.25;38.50
50854;BME280;44154;45.506;-122.806;2023-04-25T07:22:17;101625.56;;;25.34;38.58
50854;BME280;44154;45.506;-122.806;2023-04-25T07:24:44;101610.91;;;25.28;38.71
50854;BME280;44154;45.506;-122.806;2023-04-25T07:27:14;101612.81;;;25.27;39.25
50854;BME280;44154;45.506;-122.806;2023-04-25T07:29:40;101628.91;;;25.24;39.11
50854;BME280;44154;45.506;-122.806;2023-04-25T07:32:07;101617.97;;;25.24;39.25
50854;BME280;44154;45.506;-122.806;2023-04-25T07:34:33;101625.47;;;25.17;39.76
50854;BME280;44154;45.506;-122.806;2023-04-25T07:37:02;101628.44;;;25.15;40.04
50854;BME280;44154;45.506;-122.806;2023-04-25T07:39:29;101610.09;;;25.04;40.07
50854;BME280;44154;45.506;-122.806;2023-04-25T07:41:55;101621.66;;;24.94;40.58
50854;BME280;44154;45.506;-122.806;2023-04-25T07:44:21;101550.06;;;24.55;40.67
50854;BME280;44154;45.506;-122.806;2023-04-25T07:46:47;101556.03;;;24.52;40.69
50854;BME280;44154;45.506;-122.806;2023-04-25T07:49:14;101602.34;;;24.77;40.54
50854;BME280;44154;45.506;-122.806;2023-04-25T07:51:40;101603.66;;;24.74;40.76
50854;BME280;44154;45.506;-122.806;2023-04-25T07:54:09;101598.06;;;24.69;40.49
50854;BME280;44154;45.506;-122.806;2023-04-25T07:56:36;101594.00;;;24.72;40.62
50854;BME280;44154;45.506;-122.806;2023-04-25T07:59:02;101590.81;;;24.75;40.16
50854;BME280;44154;45.506;-122.806;2023-04-25T08:01:28;101592.84;;;24.80;40.00
50854;BME280;44154;45.506;-122.806;2023-04-25T08:03:54;101601.88;;;24.80;39.71
50854;BME280;44154;45.506;-122.806;2023-04-25T08:06:20;101612.00;;;24.80;39.95
50854;BME280;44154;45.506;-122.806;2023-04-25T08:08:46;101613.78;;;24.74;39.88
50854;BME280;44154;45.506;-122.806;2023-04-25T08:11:13;101630.06;;;24.69;40.10
50854;BME280;44154;45.506;-122.806;2023-04-25T08:13:39;101619.00;;;24.64;39.94
50854;BME280;44154;45.506;-122.806;2023-04-25T08:16:05;101609.34;;;24.61;40.06
50854;BME280;44154;45.506;-122.806;2023-04-25T08:18:31;101619.06;;;24.57;40.27
50854;BME280;44154;45.506;-122.806;2023-04-25T08:20:57;101616.22;;;24.52;40.18
50854;BME280;44154;45.506;-122.806;2023-04-25T08:23:23;101611.19;;;24.49;39.95
50854;BME280;44154;45.506;-122.806;2023-04-25T08:25:50;101607.63;;;24.48;39.95
50854;BME280;44154;45.506;-122.806;2023-04-25T08:28:16;101603.22;;;24.47;40.00
50854;BME280;44154;45.506;-122.806;2023-04-25T08:30:42;101609.59;;;24.59;39.62
50854;BME280;44154;45.506;-122.806;2023-04-25T08:33:08;101617.00;;;24.83;39.60
50854;BME280;44154;45.506;-122.806;2023-04-25T08:35:36;101616.50;;;24.98;39.41
50854;BME280;44154;45.506;-122.806;2023-04-25T08:38:02;101601.75;;;25.10;38.79
50854;BME280;44154;45.506;-122.806;2023-04-25T08:40:29;101614.38;;;25.23;38.50
50854;BME280;44154;45.506;-122.806;2023-04-25T08:42:58;101595.56;;;25.03;38.88
50854;BME280;44154;45.506;-122.806;2023-04-25T08:45:27;101607.47;;;25.09;38.64
50854;BME280;44154;45.506;-122.806;2023-04-25T08:47:57;101611.16;;;25.03;38.87
50854;BME280;44154;45.506;-122.806;2023-04-25T08:50:23;101603.78;;;24.91;38.75
50854;BME280;44154;45.506;-122.806;2023-04-25T08:52:53;101601.63;;;24.82;38.79
50854;BME280;44154;45.506;-122.806;2023-04-25T08:55:21;101600.56;;;24.71;38.49
50854;BME280;44154;45.506;-122.806;2023-04-25T08:57:48;101580.88;;;24.50;38.81
50854;BME280;44154;45.506;-122.806;2023-04-25T09:00:16;101594.34;;;24.52;38.75
50854;BME280;44154;45.506;-122.806;2023-04-25T09:02:43;101599.44;;;24.48;38.71
50854;BME280;44154;45.506;-122.806;2023-04-25T09:05:09;101584.88;;;24.36;38.91
50854;BME280;44154;45.506;-122.806;2023-04-25T09:07:38;101583.81;;;24.37;38.80
50854;BME280;44154;45.506;-122.806;2023-04-25T09:10:04;101587.03;;;24.34;38.63
50854;BME280;44154;45.506;-122.806;2023-04-25T09:12:31;101580.59;;;24.28;38.64
50854;BME280;44154;45.506;-122.806;2023-04-25T09:15:04;101569.41;;;24.30;39.62
50854;BME280;44154;45.506;-122.806;2023-04-25T09:17:31;101543.47;;;24.20;39.48
50854;BME280;44154;45.506;-122.806;2023-04-25T09:20:08;101570.06;;;24.55;38.81
50854;BME280;44154;45.506;-122.806;2023-04-25T09:22:36;101567.34;;;24.79;38.05
50854;BME280;44154;45.506;-122.806;2023-04-25T09:25:04;101569.72;;;24.87;37.43
50854;BME280;44154;45.506;-122.806;2023-04-25T09:27:33;101567.34;;;24.79;37.86
50854;BME280;44154;45.506;-122.806;2023-04-25T09:30:00;101590.22;;;24.97;37.93
50854;BME280;44154;45.506;-122.806;2023-04-25T09:32:26;101599.50;;;24.96;38.14
50854;BME280;44154;45.506;-122.806;2023-04-25T09:34:55;101606.53;;;24.91;38.44
50854;BME280;44154;45.506;-122.806;2023-04-25T09:37:23;101619.03;;;24.87;38.56
50854;BME280;44154;45.506;-122.806;2023-04-25T09:39:52;101604.84;;;24.67;38.46
50854;BME280;44154;45.506;-122.806;2023-04-25T09:42:25;101615.41;;;24.63;38.56
50854;BME280;44154;45.506;-122.806;2023-04-25T09:44:53;101604.91;;;24.48;38.81
50854;BME280;44154;45.506;-122.806;2023-04-25T09:47:20;101615.38;;;24.51;39.09
50854;BME280;44154;45.506;-122.806;2023-04-25T09:49:50;101604.75;;;24.43;38.97
50854;BME280;44154;45.506;-122.806;2023-04-25T09:52:21;101601.19;;;24.42;41.15
50854;BME280;44154;45.506;-122.806;2023-04-25T09:54:49;101595.81;;;24.36;41.43
50854;BME280;44154;45.506;-122.806;2023-04-25T09:57:19;101605.72;;;24.49;40.88
50854;BME280;44154;45.506;-122.806;2023-04-25T09:59:53;101575.75;;;24.54;39.82
50854;BME280;44154;45.506;-122.806;2023-04-25T10:02:22;101593.19;;;24.83;39.52
50854;BME280;44154;45.506;-122.806;2023-04-25T10:04:51;101566.63;;;24.72;38.96
50854;BME280;44154;45.506;-122.806;2023-04-25T10:07:22;101574.72;;;24.90;38.54
50854;BME280;44154;45.506;-122.806;2023-04-25T10:09:57;101582.22;;;24.83;38.98
50854;BME280;44154;45.506;-122.806;2023-04-25T10:12:26;101584.72;;;24.73;38.42
50854;BME280;44154;45.506;-122.806;2023-04-25T10:14:52;101566.50;;;24.55;38.51
50854;BME280;44154;45.506;-122.806;2023-04-25T10:17:20;101589.38;;;24.61;38.54
50854;BME280;44154;45.506;-122.806;2023-04-25T10:19:47;101593.00;;;24.54;38.77
50854;BME280;44154;45.506;-122.806;2023-04-25T10:22:30;101580.13;;;24.43;38.52
50854;BME280;44154;45.506;-122.806;2023-04-25T10:24:58;101587.75;;;24.41;40.72
50854;BME280;44154;45.506;-122.806;2023-04-25T10:27:27;101569.78;;;24.33;40.88
50854;BME280;44154;45.506;-122.806;2023-04-25T10:30:10;101592.41;;;24.52;40.34
50854;BME280;44154;45.506;-122.806;2023-04-25T10:32:43;101568.63;;;24.53;39.40
50854;BME280;44154;45.506;-122.806;2023-04-25T10:35:25;101594.03;;;24.84;39.20
50854;BME280;44154;45.506;-122.806;2023-04-25T10:40:34;101596.41;;;24.80;38.66
50854;BME280;44154;45.506;-122.806;2023-04-25T10:43:37;101604.13;;;24.71;38.34
50854;BME280;44154;45.506;-122.806;2023-04-25T10:46:19;101594.19;;;24.47;38.64
50854;BME280;44154;45.506;-122.806;2023-04-25T10:48:58;101590.16;;;24.37;38.62
50854;BME280;44154;45.506;-122.806;2023-04-25T10:51:26;101619.06;;;24.45;38.79
50854;BME280;44154;45.506;-122.806;2023-04-25T10:56:41;101620.44;;;24.36;40.81
50854;BME280;44154;45.506;-122.806;2023-04-25T10:59:19;101611.66;;;24.34;40.47
50854;BME280;44154;45.506;-122.806;2023-04-25T11:01:53;101617.63;;;24.54;39.81
50854;BME280;44154;45.506;-122.806;2023-04-25T11:04:30;101625.69;;;24.68;39.14
50854;BME280;44154;45.506;-122.806;2023-04-25T11:10:04;101634.97;;;24.67;38.94
50854;BME280;44154;45.506;-122.806;2023-04-25T11:12:32;101628.03;;;24.64;38.72
50854;BME280;44154;45.506;-122.806;2023-04-25T11:15:02;101632.53;;;24.58;38.71
50854;BME280;44154;45.506;-122.806;2023-04-25T11:17:29;101630.25;;;24.55;38.71
50854;BME280;44154;45.506;-122.806;2023-04-25T11:19:56;101628.94;;;24.46;38.75
50854;BME280;44154;45.506;-122.806;2023-04-25T11:22:23;101632.59;;;24.40;38.85
50854;BME280;44154;45.506;-122.806;2023-04-25T11:24:49;101617.44;;;24.25;39.15
50854;BME280;44154;45.506;-122.806;2023-04-25T11:27:16;101618.19;;;24.33;40.05
50854;BME280;44154;45.506;-122.806;2023-04-25T11:29:42;101624.84;;;24.37;40.23
50854;BME280;44154;45.506;-122.806;2023-04-25T11:32:09;101629.69;;;24.53;39.52
50854;BME280;44154;45.506;-122.806;2023-04-25T11:34:35;101631.59;;;24.65;38.91
50854;BME280;44154;45.506;-122.806;2023-04-25T11:37:02;101624.50;;;24.64;38.83
50854;BME280;44154;45.506;-122.806;2023-04-25T11:39:29;101623.72;;;24.56;38.88
50854;BME280;44154;45.506;-122.806;2023-04-25T11:41:55;101624.66;;;24.50;39.11
50854;BME280;44154;45.506;-122.806;2023-04-25T11:44:22;101617.38;;;24.44;38.94
50854;BME280;44154;45.506;-122.806;2023-04-25T11:46:48;101631.31;;;24.42;38.86
50854;BME280;44154;45.506;-122.806;2023-04-25T11:49:15;101624.50;;;24.33;38.69
50854;BME280;44154;45.506;-122.806;2023-04-25T11:51:47;101616.63;;;24.25;38.65
50854;BME280;44154;45.506;-122.806;2023-04-25T11:54:14;101628.31;;;24.32;38.86
50854;BME280;44154;45.506;-122.806;2023-04-25T11:56:45;101624.50;;;24.33;39.75
50854;BME280;44154;45.506;-122.806;2023-04-25T11:59:11;101621.78;;;24.45;39.76
50854;BME280;44154;45.506;-122.806;2023-04-25T12:01:47;101621.91;;;24.50;39.33
50854;BME280;44154;45.506;-122.806;2023-04-25T12:04:20;101639.13;;;24.69;38.41
50854;BME280;44154;45.506;-122.806;2023-04-25T12:06:49;101628.78;;;24.71;38.19
50854;BME280;44154;45.506;-122.806;2023-04-25T12:09:18;101626.13;;;24.65;38.29
50854;BME280;44154;45.506;-122.806;2023-04-25T12:11:48;101626.47;;;24.56;38.58
50854;BME280;44154;45.506;-122.806;2023-04-25T12:14:27;101616.78;;;24.42;38.81
50854;BME280;44154;45.506;-122.806;2023-04-25T12:16:56;101628.31;;;24.32;39.07
50854;BME280;44154;45.506;-122.806;2023-04-25T12:19:30;101625.06;;;24.23;39.09
50854;BME280;44154;45.506;-122.806;2023-04-25T12:21:58;101627.81;;;24.23;39.10
50854;BME280;44154;45.506;-122.806;2023-04-25T12:24:26;101621.72;;;24.21;38.88
50854;BME280;44154;45.506;-122.806;2023-04-25T12:27:01;101619.50;;;24.30;39.40
50854;BME280;44154;45.506;-122.806;2023-04-25T12:29:30;101630.34;;;24.37;39.32